Time;durP1;ratioP1;P1;durP2;ratioP2;P2;SDS_P1;SDS_P2;PMS_P1;PMS_P2;Temp;Humidity;BMP_temperature;BMP_pressure;BME280_temperature;BME280_humidity;BME280_pressure;Samples;Min_cycle;Max_cycle;Signal;HPM_P1;HPM_P2
2022/08/05 00:00:09;;;;;;;14.48;13.15;;;;;;;24.85;48.37;100067.00;4892415;28;101421;-82
2022/08/05 00:02:36;;;;;;;14.18;12.85;;;;;;;24.74;48.54;100056.47;4876784;28;98487;-83
2022/08/05 00:05:02;;;;;;;14.75;13.30;;;;;;;24.81;48.19;100065.59;4892151;28;97544;-83
2022/08/05 00:07:27;;;;;;;14.40;13.18;;;;;;;24.61;48.70;100052.28;4895119;28;97063;-83
2022/08/05 00:09:53;;;;;;;15.00;13.40;;;;;;;24.71;48.40;100067.50;4902754;28;97661;-83
2022/08/05 00:12:18;;;;;;;14.13;13.00;;;;;;;24.62;48.59;100062.03;4892074;28;106480;-83
2022/08/05 00:14:44;;;;;;;14.25;12.52;;;;;;;24.56;48.50;100049.22;4894908;28;97435;-83
2022/08/05 00:17:09;;;;;;;13.90;12.63;;;;;;;24.70;48.59;100065.81;4867213;28;98072;-83
2022/08/05 00:19:35;;;;;;;13.95;12.75;;;;;;;24.74;48.38;100059.16;4885625;28;101513;-82
2022/08/05 00:22:01;;;;;;;13.70;12.50;;;;;;;24.77;48.08;100057.00;4875759;28;101038;-82
2022/08/05 00:24:27;;;;;;;14.50;13.13;;;;;;;24.67;48.22;100040.13;4897828;28;99506;-82
2022/08/05 00:26:52;;;;;;;13.35;12.25;;;;;;;24.77;48.31;100059.69;4881654;28;97464;-83
2022/08/05 00:29:18;;;;;;;13.38;12.43;;;;;;;24.66;48.30;100042.94;4900679;28;100118;-82
2022/08/05 00:31:44;;;;;;;14.02;12.35;;;;;;;24.73;48.55;100055.63;4905810;28;97456;-83
2022/08/05 00:34:09;;;;;;;14.43;13.23;;;;;;;24.66;48.28;100048.31;4875028;28;97321;-81
2022/08/05 00:36:34;;;;;;;13.85;12.55;;;;;;;24.70;48.59;100063.97;4880741;28;98757;-82
2022/08/05 00:39:00;;;;;;;15.98;12.52;;;;;;;24.61;48.79;100057.66;4893880;28;101226;-82
2022/08/05 00:41:30;;;;;;;13.82;12.50;;;;;;;24.63;48.57;100050.28;4890846;28;101020;-82
2022/08/05 00:43:56;;;;;;;15.13;13.63;;;;;;;24.48;48.90;100053.63;4891960;28;97465;-82
2022/08/05 00:46:22;;;;;;;14.55;13.15;;;;;;;24.40;49.04;100057.88;4876705;28;97166;-82
2022/08/05 00:48:48;;;;;;;14.65;13.35;;;;;;;24.37;49.23;100046.56;4880485;28;98308;-84
2022/08/05 00:51:13;;;;;;;13.82;12.52;;;;;;;24.28;49.16;100034.06;4895076;28;97370;-82
2022/08/05 00:53:39;;;;;;;13.75;12.55;;;;;;;24.41;48.98;100042.63;4894714;28;98566;-83
2022/08/05 00:56:05;;;;;;;14.13;12.65;;;;;;;24.43;48.81;100051.38;4863967;28;97297;-82
2022/08/05 00:58:30;;;;;;;14.63;13.23;;;;;;;24.32;49.23;100044.34;4879468;28;101603;-82
2022/08/05 01:00:56;;;;;;;14.68;13.45;;;;;;;24.29;48.88;100030.38;4882868;28;101470;-84
2022/08/05 01:03:23;;;;;;;15.38;13.85;;;;;;;24.25;49.18;100029.81;4903970;28;97224;-82
2022/08/05 01:05:49;;;;;;;14.23;12.95;;;;;;;24.40;48.95;100030.19;4903950;28;96997;-82
2022/08/05 01:08:15;;;;;;;13.55;12.18;;;;;;;24.29;49.16;100039.28;4912541;28;98609;-82
2022/08/05 01:10:48;;;;;;;13.82;12.60;;;;;;;24.21;49.30;100030.28;4912851;28;101792;-82
2022/08/05 01:13:45;;;;;;;14.32;13.13;;;;;;;24.13;49.33;100031.00;4893625;28;97089;-81
2022/08/05 01:16:17;;;;;;;15.02;13.00;;;;;;;24.11;49.52;100036.50;4904759;28;96946;-81
2022/08/05 01:18:46;;;;;;;14.90;13.68;;;;;;;24.21;49.46;100033.81;4896881;28;101793;-82
2022/08/05 01:21:50;;;;;;;13.88;12.68;;;;;;;24.16;49.53;100023.50;4880326;28;101824;-83
2022/08/05 01:24:31;;;;;;;15.10;13.60;;;;;;;24.12;49.57;100026.66;4868651;28;96863;-84
2022/08/05 01:27:28;;;;;;;17.58;13.13;;;;;;;24.07;49.71;100020.88;4895823;28;96684;-82
2022/08/05 01:29:58;;;;;;;14.68;13.30;;;;;;;23.94;49.88;100003.28;4896679;28;101720;-84
2022/08/05 01:32:26;;;;;;;14.13;12.93;;;;;;;23.95;50.04;100020.19;4898356;28;102438;-81
2022/08/05 01:35:00;;;;;;;15.55;13.10;;;;;;;23.75;50.65;100015.88;4896264;28;96848;-84
2022/08/05 01:37:42;;;;;;;13.85;12.68;;;;;;;23.74;50.67;100015.03;4896255;28;96947;-82
2022/08/05 01:40:08;;;;;;;13.23;12.18;;;;;;;23.61;50.92;100015.28;4895760;28;99617;-82
2022/08/05 01:42:35;;;;;;;13.27;12.18;;;;;;;23.66;50.63;100013.03;4880244;28;101431;-84
2022/08/05 01:45:02;;;;;;;15.13;13.50;;;;;;;23.59;50.49;99986.97;4899239;28;96732;-82
2022/08/05 01:47:30;;;;;;;13.60;12.23;;;;;;;23.74;50.53;100004.31;4908561;28;97647;-81
2022/08/05 01:49:56;;;;;;;14.50;13.20;;;;;;;23.67;50.30;99987.94;4892475;28;97535;-82
2022/08/05 01:52:23;;;;;;;14.25;12.57;;;;;;;23.74;50.67;100009.69;4906829;28;97532;-84
2022/08/05 01:54:54;;;;;;;13.63;12.25;;;;;;;23.82;50.41;100000.91;4896466;28;98317;-82
2022/08/05 01:57:26;;;;;;;13.57;12.52;;;;;;;23.70;50.50;100006.41;4912458;28;96838;-81
2022/08/05 01:59:54;;;;;;;14.85;13.35;;;;;;;23.60;50.75;99986.00;4895829;28;98616;-84
2022/08/05 02:02:20;;;;;;;13.40;12.20;;;;;;;23.65;50.69;99999.78;4895902;28;99082;-81
2022/08/05 02:04:47;;;;;;;14.25;12.80;;;;;;;23.63;50.70;99991.06;4908888;28;101735;-82
2022/08/05 02:07:12;;;;;;;18.92;13.65;;;;;;;23.58;50.90;99998.66;4886382;28;96904;-82
2022/08/05 02:09:38;;;;;;;13.55;12.23;;;;;;;23.53;51.13;99998.25;4879388;28;101818;-82
2022/08/05 02:12:08;;;;;;;14.85;13.45;;;;;;;23.38;51.25;99981.78;4896668;28;101437;-84
2022/08/05 02:14:44;;;;;;;14.13;12.75;;;;;;;23.43;51.47;99995.59;4895468;28;96802;-81
2022/08/05 02:17:23;;;;;;;14.27;12.75;;;;;;;23.40;51.49;100001.25;4897799;28;96669;-82
2022/08/05 02:19:52;;;;;;;15.80;13.07;;;;;;;23.26;51.66;99981.94;4890888;28;100920;-82
2022/08/05 02:22:22;;;;;;;14.85;13.32;;;;;;;23.39;51.64;99999.56;4912098;28;97554;-81
2022/08/05 02:24:52;;;;;;;14.73;13.15;;;;;;;23.46;51.36;99998.81;4895333;28;98543;-81
2022/08/05 02:27:20;;;;;;;13.00;11.80;;;;;;;23.39;51.41;99994.19;4895703;28;96851;-83
2022/08/05 02:29:47;;;;;;;14.55;13.35;;;;;;;23.39;51.34;99992.38;4872970;28;101511;-81
2022/08/05 02:32:15;;;;;;;15.73;13.18;;;;;;;23.34;51.58;99986.59;4912202;28;97476;-82
2022/08/05 02:34:42;;;;;;;14.52;12.85;;;;;;;23.29;51.44;99980.81;4895562;28;96712;-82
2022/08/05 02:37:08;;;;;;;13.63;12.48;;;;;;;23.25;51.77;99990.13;4879723;28;96850;-82
2022/08/05 02:39:35;;;;;;;13.15;11.82;;;;;;;23.13;52.15;99983.22;4897780;28;101386;-84
2022/08/05 02:42:02;;;;;;;14.10;12.20;;;;;;;23.22;51.87;99982.38;4876243;28;101436;-82
2022/08/05 02:44:29;;;;;;;16.02;13.40;;;;;;;23.12;51.98;99968.97;4911477;28;98479;-81
2022/08/05 02:46:55;;;;;;;14.57;12.70;;;;;;;23.12;52.10;99978.84;4912183;28;96909;-82
2022/08/05 02:49:21;;;;;;;14.85;13.27;;;;;;;23.03;52.06;99976.00;4894084;28;101275;-81
2022/08/05 02:51:46;;;;;;;14.10;12.80;;;;;;;23.03;52.37;99983.19;4904369;28;98553;-82
2022/08/05 02:54:12;;;;;;;30.73;13.90;;;;;;;22.99;52.49;99984.47;4895912;28;96915;-83
2022/08/05 02:56:39;;;;;;;15.05;13.68;;;;;;;22.93;52.40;99974.31;4898483;28;98582;-82
2022/08/05 02:59:05;;;;;;;14.57;13.07;;;;;;;22.98;52.52;99989.00;4907845;28;97527;-82
2022/08/05 03:01:32;;;;;;;15.85;14.35;;;;;;;23.15;51.97;99983.91;4896983;28;96825;-82
2022/08/05 03:04:00;;;;;;;20.02;13.85;;;;;;;22.99;52.20;99965.75;4901236;28;96780;-81
2022/08/05 03:06:26;;;;;;;15.27;13.88;;;;;;;22.82;52.49;99964.56;4894842;28;96872;-83
2022/08/05 03:08:52;;;;;;;16.25;14.63;;;;;;;22.85;52.58;99987.53;4892920;28;97468;-84
2022/08/05 03:11:25;;;;;;;14.98;13.63;;;;;;;22.71;52.89;99962.84;4874139;28;101049;-81
2022/08/05 03:13:51;;;;;;;16.98;13.93;;;;;;;22.67;53.31;99965.97;4879323;28;97257;-84
2022/08/05 03:16:17;;;;;;;14.85;13.35;;;;;;;22.64;53.29;99976.94;4901997;28;97015;-81
2022/08/05 03:18:42;;;;;;;17.35;13.65;;;;;;;22.63;53.07;99965.41;4894553;28;101006;-82
2022/08/05 03:21:08;;;;;;;19.65;15.00;;;;;;;22.69;52.92;99956.81;4894853;28;101029;-82
2022/08/05 03:23:34;;;;;;;15.57;13.98;;;;;;;22.68;53.20;99970.31;4878997;28;96808;-84
2022/08/05 03:26:00;;;;;;;18.20;13.90;;;;;;;22.65;53.24;99974.13;4879058;28;96895;-82
2022/08/05 03:28:26;;;;;;;15.10;13.80;;;;;;;22.63;53.01;99973.44;4894210;28;101508;-84
2022/08/05 03:30:52;;;;;;;15.05;13.73;;;;;;;22.58;53.17;99967.63;4895097;28;101774;-83
2022/08/05 03:33:18;;;;;;;15.50;13.98;;;;;;;22.49;53.16;99934.53;4902403;28;96764;-83
2022/08/05 03:35:44;;;;;;;16.85;15.02;;;;;;;22.68;53.12;99965.81;4894154;28;97348;-83
2022/08/05 03:38:11;;;;;;;15.43;14.10;;;;;;;22.59;53.28;99956.78;4894693;28;97459;-83
2022/08/05 03:40:40;;;;;;;15.82;13.63;;;;;;;22.47;53.62;99965.06;4894130;28;101192;-81
2022/08/05 03:43:06;;;;;;;17.30;14.63;;;;;;;22.49;53.49;99961.28;4895417;28;96797;-81
2022/08/05 03:45:31;;;;;;;15.55;14.13;;;;;;;22.51;53.43;99972.66;4911634;28;98614;-83
2022/08/05 03:47:57;;;;;;;16.60;15.23;;;;;;;22.43;53.64;99963.63;4912367;28;98021;-83
2022/08/05 03:50:22;;;;;;;16.55;14.88;;;;;;;22.32;53.74;99946.75;4894422;28;97752;-81
2022/08/05 03:53:02;;;;;;;15.80;14.43;;;;;;;22.43;53.78;99967.19;4895205;28;96640;-83
2022/08/05 03:55:35;;;;;;;16.88;14.95;;;;;;;22.43;53.76;99963.63;4894530;28;96850;-81
2022/08/05 03:58:01;;;;;;;16.55;14.85;;;;;;;22.54;53.71;99961.72;4910555;28;97495;-82
2022/08/05 04:00:28;;;;;;;16.73;14.77;;;;;;;22.49;53.65;99969.31;4910247;28;98138;-83
2022/08/05 04:02:55;;;;;;;20.60;15.30;;;;;;;22.47;53.81;99957.91;4894666;28;96714;-84
2022/08/05 04:05:21;;;;;;;17.80;15.73;;;;;;;22.37;53.75;99938.31;4894852;28;96805;-83
2022/08/05 04:07:47;;;;;;;18.15;15.77;;;;;;;22.47;53.66;99965.06;4911620;28;97533;-84
2022/08/05 04:10:12;;;;;;;16.88;14.32;;;;;;;22.49;53.68;99957.78;4894275;28;101404;-84
2022/08/05 04:12:38;;;;;;;16.00;14.38;;;;;;;22.59;53.47;99948.75;4879689;28;97154;-83
2022/08/05 04:15:05;;;;;;;17.98;15.90;;;;;;;22.52;53.78;99962.84;4908522;28;98252;-81
2022/08/05 04:17:32;;;;;;;16.50;14.82;;;;;;;22.54;53.80;99956.38;4904126;28;97616;-81
2022/08/05 04:19:58;;;;;;;17.92;16.15;;;;;;;22.49;53.41;99939.91;4896866;28;100935;-82
2022/08/05 04:22:23;;;;;;;18.02;15.95;;;;;;;22.53;53.61;99935.09;4882244;28;96826;-83
2022/08/05 04:24:49;;;;;;;17.13;14.68;;;;;;;22.71;53.44;99956.66;4897390;28;96846;-84
2022/08/05 04:27:15;;;;;;;16.73;15.23;;;;;;;22.61;53.39;99932.59;4897133;28;100651;-84
2022/08/05 04:29:40;;;;;;;16.40;14.38;;;;;;;22.59;53.72;99942.56;4880937;28;100920;-82
2022/08/05 04:32:06;;;;;;;15.18;13.75;;;;;;;22.75;53.24;99942.03;4897882;28;96896;-82
2022/08/05 04:34:32;;;;;;;16.85;15.15;;;;;;;22.78;53.19;99941.75;4913278;28;96832;-82
2022/08/05 04:36:58;;;;;;;18.40;14.75;;;;;;;23.02;53.09;99949.41;4896642;28;101662;-82
2022/08/05 04:39:23;;;;;;;17.45;14.20;;;;;;;23.24;52.39;99943.75;4894108;28;100742;-82
2022/08/05 04:41:49;;;;;;;16.00;14.43;;;;;;;23.40;51.97;99940.47;4896990;28;99081;-82
2022/08/05 04:44:15;;;;;;;17.67;15.02;;;;;;;23.37;51.84;99937.25;4894949;28;97078;-84
2022/08/05 04:46:40;;;;;;;15.27;13.75;;;;;;;23.46;51.72;99937.22;4889226;28;101678;-83
2022/08/05 04:49:06;;;;;;;20.63;15.80;;;;;;;23.73;51.37;99943.66;4897512;28;100378;-82
2022/08/05 04:51:31;;;;;;;19.88;15.50;;;;;;;23.91;51.08;99951.78;4880261;28;97219;-83
2022/08/05 04:53:58;;;;;;;19.52;14.65;;;;;;;23.95;50.77;99919.19;4913875;28;96884;-83
2022/08/05 04:56:23;;;;;;;16.63;14.88;;;;;;;24.01;50.38;99944.56;4893285;28;101330;-82
2022/08/05 04:58:49;;;;;;;16.45;14.35;;;;;;;24.02;50.56;99932.00;4890476;28;97653;-82
2022/08/05 05:01:14;;;;;;;17.10;15.38;;;;;;;24.16;50.35;99951.13;4912564;28;96902;-83
2022/08/05 05:03:40;;;;;;;20.48;14.98;;;;;;;24.31;50.26;99951.47;4897206;28;96781;-83
2022/08/05 05:06:09;;;;;;;15.95;14.43;;;;;;;24.55;49.86;99958.13;4896412;28;101780;-83
2022/08/05 05:08:35;;;;;;;16.58;14.95;;;;;;;24.67;49.37;99956.06;4896732;28;101590;-83
2022/08/05 05:11:01;;;;;;;16.05;14.63;;;;;;;24.70;49.11;99950.44;4906232;28;96766;-83
2022/08/05 05:13:26;;;;;;;16.10;14.73;;;;;;;24.93;49.06;99948.09;4908618;28;97090;-83
2022/08/05 05:15:52;;;;;;;16.70;15.20;;;;;;;24.93;48.88;99940.06;4896900;28;100503;-83
2022/08/05 05:18:17;;;;;;;16.63;14.90;;;;;;;24.97;48.89;99936.91;4900105;28;104746;-83
2022/08/05 05:20:43;;;;;;;17.00;15.32;;;;;;;25.18;48.38;99952.72;4880262;28;97506;-83
2022/08/05 05:23:09;;;;;;;18.00;16.27;;;;;;;24.92;49.00;99933.00;4896803;28;98109;-83
2022/08/05 05:25:34;;;;;;;15.70;14.45;;;;;;;25.23;48.64;99936.16;4918214;28;98790;-85
2022/08/05 05:27:59;;;;;;;17.08;15.63;;;;;;;25.36;48.34;99935.75;4900291;28;101408;-85
2022/08/05 05:30:25;;;;;;;17.00;15.32;;;;;;;25.47;48.21;99951.63;4910978;28;96806;-84
2022/08/05 05:32:50;;;;;;;16.73;15.13;;;;;;;25.84;47.58;99954.06;4897002;28;96863;-84
2022/08/05 05:35:16;;;;;;;18.40;15.73;;;;;;;26.11;47.08;99938.72;4894577;28;98627;-84
2022/08/05 05:37:49;;;;;;;17.88;16.23;;;;;;;26.38;46.57;99946.59;4896325;28;101164;-86
2022/08/05 05:40:16;;;;;;;16.38;14.98;;;;;;;26.95;45.46;99943.19;4880223;28;97943;-84
2022/08/05 05:42:41;;;;;;;16.17;14.77;;;;;;;27.63;43.99;99950.06;4896412;28;97343;-85
2022/08/05 05:45:07;;;;;;;16.35;15.05;;;;;;;28.40;42.55;99920.66;4912139;28;102777;-86
2022/08/05 05:47:34;;;;;;;16.60;15.10;;;;;;;29.60;40.39;99949.00;4912058;28;99021;-85
2022/08/05 05:49:59;;;;;;;16.70;15.20;;;;;;;30.51;38.67;99953.19;4896816;28;96783;-86
2022/08/05 05:52:25;;;;;;;16.00;14.75;;;;;;;31.48;37.23;99943.75;4913063;28;97115;-86
2022/08/05 05:54:50;;;;;;;15.98;14.48;;;;;;;32.54;36.06;99949.78;4895572;28;99531;-86
2022/08/05 05:57:16;;;;;;;14.93;13.63;;;;;;;32.90;35.29;99946.75;4880286;28;103472;-86
2022/08/05 05:59:41;;;;;;;16.40;14.90;;;;;;;33.87;33.34;99941.72;4879708;28;97183;-86
2022/08/05 06:02:07;;;;;;;16.20;14.77;;;;;;;34.45;32.75;99943.63;4893934;28;98750;-86
2022/08/05 06:04:32;;;;;;;16.25;14.70;;;;;;;34.76;32.30;99940.09;4893917;28;101087;-85
2022/08/05 06:06:58;;;;;;;17.90;15.10;;;;;;;34.87;31.86;99933.97;4913081;28;101371;-86
2022/08/05 06:09:23;;;;;;;15.75;13.98;;;;;;;35.36;31.44;99915.97;4907573;28;96815;-87
2022/08/05 06:11:48;;;;;;;15.30;14.15;;;;;;;35.79;31.14;99936.16;4892285;28;97122;-86
2022/08/05 06:14:14;;;;;;;15.27;14.07;;;;;;;36.18;30.16;99923.94;4904918;28;98084;-86
2022/08/05 06:16:39;;;;;;;15.57;13.88;;;;;;;36.92;28.95;99923.78;4911611;28;97998;-87
2022/08/05 06:19:05;;;;;;;15.20;13.88;;;;;;;37.34;28.53;99929.22;4896284;28;96928;-87
2022/08/05 06:21:31;;;;;;;15.73;14.30;;;;;;;37.25;29.03;99916.97;4895922;28;97178;-87
2022/08/05 06:23:58;;;;;;;15.02;13.45;;;;;;;37.70;28.07;99919.09;4895986;28;101494;-87
2022/08/05 06:26:23;;;;;;;15.45;14.02;;;;;;;37.97;28.19;99934.00;4895601;28;97904;-87
2022/08/05 06:28:49;;;;;;;14.68;13.35;;;;;;;38.33;27.69;99923.75;4895568;28;98227;-87
2022/08/05 06:31:14;;;;;;;14.95;13.65;;;;;;;38.65;27.07;99915.06;4896024;28;97788;-87
2022/08/05 06:33:40;;;;;;;14.77;13.27;;;;;;;38.59;27.75;99916.03;4908563;28;97663;-87
2022/08/05 06:36:05;;;;;;;14.93;13.40;;;;;;;37.95;28.42;99916.13;4895040;28;98470;-87
2022/08/05 06:38:31;;;;;;;14.20;12.85;;;;;;;37.99;27.97;99917.28;4896108;28;96720;-86
2022/08/05 06:40:56;;;;;;;14.52;12.80;;;;;;;38.32;27.83;99921.25;4895287;28;97341;-87
2022/08/05 06:43:22;;;;;;;14.98;13.45;;;;;;;39.42;26.60;99924.59;4911385;28;105426;-87
2022/08/05 06:45:48;;;;;;;14.80;13.60;;;;;;;40.43;25.75;99911.38;4895592;28;96746;-87
2022/08/05 06:48:13;;;;;;;14.20;12.70;;;;;;;38.82;27.03;99912.34;4912218;28;96834;-87
2022/08/05 06:50:39;;;;;;;14.77;13.57;;;;;;;38.17;27.77;99924.53;4895003;28;96989;-87
2022/08/05 06:53:04;;;;;;;14.60;13.38;;;;;;;39.22;26.92;99919.63;4911579;28;98127;-87
2022/08/05 06:55:29;;;;;;;16.58;13.10;;;;;;;40.43;26.06;99913.31;4911384;28;97477;-87
2022/08/05 06:57:55;;;;;;;16.98;13.57;;;;;;;41.14;24.52;99914.03;4895861;28;96936;-88
2022/08/05 07:00:20;;;;;;;15.13;13.00;;;;;;;41.54;24.44;99914.56;4895734;28;96774;-87
2022/08/05 07:02:46;;;;;;;15.05;13.55;;;;;;;42.06;23.42;99903.53;4895145;28;100183;-87
2022/08/05 07:05:12;;;;;;;15.05;13.52;;;;;;;42.18;23.65;99911.59;4905005;28;97572;-87
2022/08/05 07:07:39;;;;;;;14.35;13.00;;;;;;;42.68;22.94;99912.00;4888247;28;96812;-86
2022/08/05 07:10:06;;;;;;;14.57;13.07;;;;;;;42.84;23.27;99908.16;4879540;28;96874;-87
2022/08/05 07:18:00;;;;;;;15.32;14.02;;;;;;;43.45;22.02;99904.53;4893860;28;97140;-87
2022/08/05 07:20:25;;;;;;;14.90;13.30;;;;;;;44.23;21.80;99897.66;4881580;28;97196;-88
2022/08/05 07:22:51;;;;;;;14.77;13.48;;;;;;;44.66;21.13;99897.94;4910970;28;97516;-87
2022/08/05 07:25:16;;;;;;;15.32;13.88;;;;;;;44.71;21.03;99900.66;4894738;28;99182;-87
2022/08/05 07:27:42;;;;;;;14.43;12.82;;;;;;;44.44;21.38;99892.84;4912401;28;96667;-87
2022/08/05 07:30:08;;;;;;;14.15;12.82;;;;;;;42.41;23.02;99890.97;4893467;28;96846;-87
2022/08/05 07:32:35;;;;;;;14.57;13.32;;;;;;;41.09;24.64;99891.13;4896851;28;96920;-87
2022/08/05 07:35:00;;;;;;;14.73;12.93;;;;;;;41.16;24.43;99892.56;4905238;28;97366;-89
2022/08/05 07:37:26;;;;;;;14.65;13.25;;;;;;;40.26;25.59;99889.50;4878216;28;96674;-89
2022/08/05 07:39:51;;;;;;;13.77;12.68;;;;;;;39.36;26.78;99901.72;4903064;28;96825;-88
2022/08/05 07:42:17;;;;;;;14.75;13.57;;;;;;;41.99;24.55;99891.97;4894247;28;101696;-86
2022/08/05 07:44:42;;;;;;;14.05;12.65;;;;;;;43.68;23.06;99897.59;4893963;28;101085;-89
2022/08/05 07:47:08;;;;;;;13.93;12.73;;;;;;;44.37;21.77;99884.06;4893887;28;97179;-88
2022/08/05 07:49:33;;;;;;;13.98;12.90;;;;;;;44.53;22.20;99882.00;4910587;28;96844;-87
2022/08/05 07:51:59;;;;;;;13.77;12.48;;;;;;;44.70;21.65;99897.06;4893917;28;101522;-88
2022/08/05 07:54:27;;;;;;;14.85;13.20;;;;;;;45.43;20.89;99888.97;4911641;28;98091;-87
2022/08/05 07:56:53;;;;;;;14.88;13.27;;;;;;;45.57;20.66;99874.13;4910728;28;96741;-88
2022/08/05 07:59:18;;;;;;;14.65;13.20;;;;;;;45.28;20.29;99893.56;4891744;28;96889;-91
2022/08/05 08:01:43;;;;;;;14.38;12.95;;;;;;;45.02;20.60;99873.56;4887831;28;101292;-87
2022/08/05 08:04:09;;;;;;;15.07;14.05;;;;;;;44.88;21.21;99884.47;4894758;28;101233;-87
2022/08/05 08:06:34;;;;;;;14.80;13.55;;;;;;;45.22;20.45;99891.13;4896720;28;96719;-88
2022/08/05 08:09:00;;;;;;;14.57;13.45;;;;;;;44.93;20.97;99889.97;4897766;28;96832;-88
2022/08/05 08:11:27;;;;;;;13.93;12.80;;;;;;;44.40;21.18;99883.47;4906406;28;97604;-88
2022/08/05 08:13:53;;;;;;;14.07;13.18;;;;;;;44.50;20.97;99883.38;4894322;28;101099;-87
2022/08/05 08:16:18;;;;;;;13.88;12.68;;;;;;;44.46;20.58;99883.13;4901435;28;97142;-86
2022/08/05 08:18:44;;;;;;;15.00;13.70;;;;;;;44.96;20.60;99880.28;4894333;28;97084;-89
2022/08/05 08:21:10;;;;;;;14.43;13.38;;;;;;;46.07;19.83;99874.63;4910446;28;98407;-87
2022/08/05 08:23:36;;;;;;;13.93;12.70;;;;;;;46.14;19.54;99871.50;4878568;28;100785;-88
2022/08/05 08:26:01;;;;;;;16.75;14.07;;;;;;;45.26;20.04;99870.84;4878077;28;97096;-87
2022/08/05 08:28:27;;;;;;;14.77;13.85;;;;;;;45.27;20.65;99871.69;4894645;28;96964;-89
2022/08/05 08:30:53;;;;;;;15.35;14.02;;;;;;;46.02;20.00;99858.06;4893194;28;100425;-89
2022/08/05 08:33:18;;;;;;;14.98;13.88;;;;;;;46.29;19.75;99868.50;4894720;28;101271;-87
2022/08/05 08:35:44;;;;;;;14.40;13.27;;;;;;;46.72;17.57;99864.78;4893773;28;96877;-86
2022/08/05 08:38:10;;;;;;;13.80;12.70;;;;;;;46.21;18.74;99862.78;4894354;28;96940;-88
2022/08/05 08:40:36;;;;;;;14.63;13.20;;;;;;;46.15;19.22;99872.31;4910293;28;97663;-88
2022/08/05 08:43:03;;;;;;;14.85;13.50;;;;;;;46.48;19.25;99871.25;4910283;28;98054;-88
2022/08/05 08:45:29;;;;;;;14.80;13.23;;;;;;;46.08;19.66;99869.88;4894177;28;96729;-88
2022/08/05 08:47:57;;;;;;;14.77;13.88;;;;;;;46.01;19.41;99861.94;4910818;28;96877;-87
2022/08/05 08:50:23;;;;;;;14.75;13.40;;;;;;;47.25;18.50;99864.44;4893889;28;100964;-88
2022/08/05 08:52:53;;;;;;;15.00;13.95;;;;;;;47.54;17.55;99858.59;4877918;28;101215;-87
2022/08/05 08:55:19;;;;;;;14.77;13.50;;;;;;;47.54;17.61;99861.38;4890571;28;96731;-88
2022/08/05 08:57:46;;;;;;;14.32;13.52;;;;;;;47.97;16.55;99852.69;4910862;28;96895;-87
2022/08/05 09:00:13;;;;;;;14.60;13.20;;;;;;;47.54;17.32;99858.59;4913676;28;97537;-88
2022/08/05 09:02:38;;;;;;;12.57;11.88;;;;;;;47.28;16.72;99857.44;4897488;28;100906;-88
2022/08/05 09:05:04;;;;;;;14.15;12.98;;;;;;;47.34;16.59;99870.09;4900461;28;97123;-88
2022/08/05 09:07:30;;;;;;;13.60;12.80;;;;;;;47.53;16.92;99856.09;4897612;28;96897;-88
2022/08/05 09:09:55;;;;;;;13.55;12.55;;;;;;;47.31;16.69;99854.03;4896225;28;105681;-88
2022/08/05 09:12:21;;;;;;;13.38;12.68;;;;;;;47.86;16.07;99854.06;4881943;28;100435;-88
2022/08/05 09:14:47;;;;;;;12.95;12.02;;;;;;;47.18;16.02;99850.09;4913214;28;99640;-88
2022/08/05 09:17:13;;;;;;;13.02;12.23;;;;;;;47.01;17.01;99850.66;4894737;28;96754;-88
2022/08/05 09:19:39;;;;;;;13.27;12.57;;;;;;;47.01;16.89;99839.56;4906395;28;97943;-88
2022/08/05 09:22:04;;;;;;;12.63;11.75;;;;;;;47.35;16.83;99844.75;4913239;28;97320;-87
2022/08/05 09:24:29;;;;;;;13.45;12.63;;;;;;;47.19;16.64;99840.66;4896842;28;96667;-88
2022/08/05 09:26:57;;;;;;;13.43;12.50;;;;;;;46.88;17.17;99838.41;4897072;28;96620;-89
2022/08/05 09:29:44;;;;;;;13.60;12.73;;;;;;;46.70;17.13;99844.84;4896852;28;97480;-86
2022/08/05 09:32:10;;;;;;;12.82;12.02;;;;;;;45.80;17.74;99841.16;4913248;28;97619;-86
2022/08/05 09:34:53;;;;;;;12.75;11.55;;;;;;;44.97;17.87;99837.63;4912951;28;96835;-88
2022/08/05 09:37:24;;;;;;;12.57;11.88;;;;;;;44.51;18.77;99847.16;4897362;28;96949;-88
2022/08/05 09:39:50;;;;;;;12.73;11.82;;;;;;;43.89;19.18;99842.25;4893149;28;101179;-86
2022/08/05 09:42:18;;;;;;;12.70;12.00;;;;;;;43.58;19.49;99836.88;4880780;28;101187;-87
2022/08/05 09:44:45;;;;;;;13.37;12.27;;;;;;;43.18;20.32;99836.69;4896293;28;97082;-87
2022/08/05 09:47:14;;;;;;;13.07;11.95;;;;;;;43.49;19.79;99838.50;4896248;28;97026;-88
2022/08/05 09:49:42;;;;;;;12.35;11.27;;;;;;;43.48;19.46;99823.88;4912228;28;101350;-87
2022/08/05 09:52:28;;;;;;;12.07;10.98;;;;;;;43.31;18.85;99829.72;4912566;28;97065;-88
2022/08/05 09:55:06;;;;;;;13.25;11.05;;;;;;;42.71;19.75;99834.22;4892554;28;97348;-88
2022/08/05 09:57:40;;;;;;;11.73;10.85;;;;;;;42.73;19.76;99834.78;4893806;28;96881;-87
2022/08/05 10:00:07;;;;;;;12.00;11.10;;;;;;;42.69;20.38;99841.94;4895799;28;97795;-87
2022/08/05 10:02:47;;;;;;;12.73;11.93;;;;;;;42.35;20.36;99842.44;4896884;28;101459;-88
2022/08/05 10:05:21;;;;;;;12.02;11.25;;;;;;;42.37;20.45;99839.44;4889362;28;96831;-87
2022/08/05 10:07:55;;;;;;;11.95;10.98;;;;;;;42.16;19.82;99833.84;4907181;28;96887;-87
2022/08/05 10:10:26;;;;;;;11.88;11.18;;;;;;;42.11;20.42;99830.25;4867065;28;100293;-87
2022/08/05 10:12:57;;;;;;;11.65;10.95;;;;;;;41.96;20.82;99822.78;4880703;28;101877;-87
2022/08/05 10:15:28;;;;;;;12.18;11.27;;;;;;;41.78;21.02;99838.69;4911647;28;96714;-87
2022/08/05 10:18:13;;;;;;;12.77;11.65;;;;;;;41.58;21.09;99833.91;4886466;28;98336;-86
2022/08/05 10:20:43;;;;;;;11.90;10.82;;;;;;;41.14;21.45;99842.47;4900487;28;98615;-88
2022/08/05 10:23:10;;;;;;;11.93;11.10;;;;;;;40.59;21.27;99829.06;4912598;28;97224;-87
2022/08/05 10:25:36;;;;;;;12.13;11.25;;;;;;;40.30;22.21;99834.03;4909506;28;96765;-86
2022/08/05 10:28:02;;;;;;;12.23;11.32;;;;;;;40.00;22.09;99833.41;4896074;28;96952;-87
2022/08/05 10:30:28;;;;;;;11.98;11.02;;;;;;;39.61;21.83;99816.97;4892128;28;100295;-87
2022/08/05 10:32:55;;;;;;;11.95;10.95;;;;;;;39.21;22.74;99809.00;4886777;28;101539;-85
2022/08/05 10:35:20;;;;;;;12.57;11.52;;;;;;;39.18;23.52;99815.00;4878864;28;97514;-86
2022/08/05 10:37:46;;;;;;;12.02;11.32;;;;;;;38.75;24.26;99805.56;4912516;28;96806;-87
2022/08/05 10:40:24;;;;;;;12.23;11.20;;;;;;;38.61;24.42;99815.19;4903546;28;97410;-86
2022/08/05 10:42:51;;;;;;;12.30;11.50;;;;;;;38.40;25.18;99816.72;4912204;28;98185;-87
2022/08/05 10:45:24;;;;;;;12.18;11.25;;;;;;;38.13;25.36;99814.59;4878903;28;97225;-86
2022/08/05 10:47:50;;;;;;;10.82;10.13;;;;;;;37.81;24.79;99814.22;4912661;28;96750;-86
2022/08/05 10:50:17;;;;;;;10.52;9.82;;;;;;;37.55;25.33;99807.38;4891975;28;101197;-87
2022/08/05 10:52:52;;;;;;;11.68;10.52;;;;;;;37.26;25.02;99807.25;4896708;28;101032;-87
2022/08/05 10:55:18;;;;;;;11.40;10.63;;;;;;;37.04;25.38;99808.97;4892234;28;97082;-86
2022/08/05 10:57:45;;;;;;;11.10;10.32;;;;;;;36.74;25.68;99809.03;4910894;28;96948;-85
2022/08/05 11:00:15;;;;;;;10.35;9.75;;;;;;;36.62;25.77;99807.09;4894513;28;102018;-86
2022/08/05 11:03:02;;;;;;;11.13;10.05;;;;;;;36.43;25.04;99814.53;4879625;28;101188;-86
2022/08/05 11:05:28;;;;;;;10.98;10.02;;;;;;;36.16;25.01;99816.84;4902900;28;97188;-86
2022/08/05 11:07:57;;;;;;;11.60;10.52;;;;;;;36.08;25.80;99805.41;4888610;28;97114;-87
2022/08/05 11:10:24;;;;;;;11.10;10.20;;;;;;;36.08;25.00;99816.34;4911466;28;97696;-86
2022/08/05 11:12:49;;;;;;;11.20;10.25;;;;;;;36.02;25.84;99807.97;4911377;28;101399;-87
2022/08/05 11:15:16;;;;;;;10.73;9.90;;;;;;;36.13;25.54;99810.97;4907393;28;97233;-86
2022/08/05 11:17:43;;;;;;;12.13;10.60;;;;;;;36.09;26.00;99798.88;4903761;28;97217;-86
2022/08/05 11:20:41;;;;;;;10.32;9.73;;;;;;;36.17;25.73;99815.75;4893997;28;101085;-86